Crabtree, Canada
Current Conditions -  °F | °C
As of 9:00 PM on Wednesday 22 Oct 2014 (Local Time) from CYHU Reporting Station
Overcast Overcast  
Wind Chill: 39°   Ceiling: 7500
Heat Index: 46°   Visibility: 9mi
Dew Point: 34°   Wind: 17mph
Humidity: 62%   Direction: 30°NNE
Pressure: 30.23"   Gusts: 25mph
Location:  45.97°N, 73.47°W
Report Text: CYHU 230100Z AUTO 03015G22KT 9SM BKN075 OVC190 08/01 A3023 RMK SLP237
Loading
Personal Weather Stations






























Interactive Weather Map
Tropical Storm Tracking
New forecast layout! Learn more

10-Day Weather Forecast

Advertisements
Track Severe Weather on mobile